createdAt,value
2019-04-20T00:02:27.494Z,96094.81
2019-04-20T00:05:01.176Z,96089.05
2019-04-20T00:07:36.370Z,96091.33
2019-04-20T00:10:15.065Z,96094.05
2019-04-20T00:13:01.015Z,96095.96
2019-04-20T00:15:18.106Z,96087.82
2019-04-20T00:17:56.150Z,96090.92
2019-04-20T00:20:29.664Z,96096.16
2019-04-20T00:23:22.663Z,96085.95
2019-04-20T00:26:26.799Z,96077.30
2019-04-20T00:29:06.987Z,96087.80
2019-04-20T00:31:42.023Z,96082.55
2019-04-20T00:34:08.972Z,96085.80
2019-04-20T00:36:34.890Z,96081.25
2019-04-20T00:39:12.838Z,96078.47
2019-04-20T00:41:51.743Z,96078.52
2019-04-20T00:44:25.149Z,96081.86
2019-04-20T00:47:04.899Z,96065.12
2019-04-20T00:49:47.278Z,96072.40
2019-04-20T00:52:30.742Z,96067.60
2019-04-20T00:54:37.428Z,96065.61
2019-04-20T00:57:21.755Z,96062.97
2019-04-20T01:00:06.178Z,96058.26
2019-04-20T01:02:33.287Z,96054.00
2019-04-20T01:05:11.117Z,96056.96
2019-04-20T01:07:52.029Z,96060.58
2019-04-20T01:10:21.605Z,96058.64
2019-04-20T01:13:04.356Z,96054.55
2019-04-20T01:15:38.797Z,96055.80
2019-04-20T01:18:03.812Z,96056.59
2019-04-20T01:20:38.942Z,96060.59
2019-04-20T01:23:16.010Z,96056.61
2019-04-20T01:25:51.991Z,96061.95
2019-04-20T01:28:37.464Z,96055.08
2019-04-20T01:31:09.218Z,96054.66
2019-04-20T01:33:42.452Z,96054.59
2019-04-20T01:36:26.586Z,96055.17
2019-04-20T01:38:55.354Z,96064.82
2019-04-20T01:41:14.316Z,96065.59
2019-04-20T01:43:48.099Z,96057.66
2019-04-20T01:46:23.982Z,96052.67
2019-04-20T01:49:00.000Z,96052.30
2019-04-20T01:51:44.106Z,96061.86
2019-04-20T01:54:24.519Z,96064.27
2019-04-20T01:56:54.904Z,96056.45
2019-04-20T01:59:40.279Z,96061.93
2019-04-20T02:02:35.529Z,96055.09
2019-04-20T02:05:16.604Z,96055.73
2019-04-20T02:07:51.054Z,96057.80
2019-04-20T02:10:33.247Z,96054.06
2019-04-20T02:13:00.175Z,96048.36
2019-04-20T02:15:38.626Z,96054.48
2019-04-20T02:18:20.526Z,96045.37
2019-04-20T02:20:59.847Z,96051.89
2019-04-20T02:23:29.579Z,96049.08
2019-04-20T02:25:50.143Z,96039.23
2019-04-20T02:28:56.598Z,96046.48
2019-04-20T02:34:23.991Z,96044.71
2019-04-20T02:39:37.566Z,96050.55
2019-04-20T02:44:52.456Z,96056.62
2019-04-20T02:47:21.705Z,96056.70
2019-04-20T02:49:50.939Z,96053.09
2019-04-20T02:52:33.500Z,96047.38
2019-04-20T02:55:04.132Z,96044.25
2019-04-20T02:57:44.306Z,96039.52
2019-04-20T03:02:27.237Z,96052.23
2019-04-20T03:05:00.208Z,96052.23
2019-04-20T03:07:34.456Z,96046.44
2019-04-20T03:10:14.079Z,96042.86
2019-04-20T03:12:53.706Z,96043.51
2019-04-20T03:15:30.298Z,96049.03
2019-04-20T03:18:03.549Z,96042.80
2019-04-20T03:20:41.822Z,96042.73
2019-04-20T03:23:26.109Z,96043.63
2019-04-20T03:26:12.762Z,96037.55
2019-04-20T03:29:03.906Z,96046.53
2019-04-20T03:32:33.051Z,96038.08
2019-04-20T03:34:47.541Z,96026.61
2019-04-20T03:37:04.408Z,96036.25
2019-04-20T03:39:28.692Z,96036.72
2019-04-20T03:41:49.316Z,96024.70
2019-04-20T03:44:24.396Z,96035.86
2019-04-20T03:46:59.708Z,96029.13
2019-04-20T03:49:54.804Z,96028.39
2019-04-20T03:52:32.831Z,96034.86
2019-04-20T03:55:35.655Z,96027.83
2019-04-20T03:58:28.505Z,96027.55
2019-04-20T04:01:22.801Z,96033.47
2019-04-20T04:04:05.259Z,96033.93
2019-04-20T04:06:26.481Z,96025.93
2019-04-20T04:09:02.411Z,96025.75
2019-04-20T04:11:44.486Z,96023.13
2019-04-20T04:14:00.852Z,96032.27
2019-04-20T04:16:41.843Z,96032.61
2019-04-20T04:19:16.409Z,96026.84
2019-04-20T04:22:00.794Z,96030.47
2019-04-20T04:24:30.511Z,96029.80
2019-04-20T04:27:05.695Z,96031.85
2019-04-20T04:29:47.138Z,96031.49
2019-04-20T04:32:37.540Z,96033.28
2019-04-20T04:34:57.245Z,96031.17
2019-04-20T04:37:35.482Z,96031.24
2019-04-20T04:40:14.840Z,96038.77
2019-04-20T04:42:45.502Z,96043.62
2019-04-20T04:45:01.610Z,96041.43
2019-04-20T04:47:30.439Z,96047.56
2019-04-20T04:50:10.769Z,96046.27
2019-04-20T04:52:45.390Z,96046.88
2019-04-20T04:55:28.605Z,96053.80
2019-04-20T04:57:47.386Z,96047.75
2019-04-20T05:00:26.207Z,96056.14
2019-04-20T05:03:02.006Z,96057.28
2019-04-20T05:06:24.463Z,96056.31
2019-04-20T05:08:47.361Z,96055.03
2019-04-20T05:11:17.931Z,96058.40
2019-04-20T05:13:59.694Z,96059.16
2019-04-20T05:16:45.129Z,96057.64
2019-04-20T05:19:26.070Z,96057.58
2019-04-20T05:22:17.802Z,96057.31
2019-04-20T05:25:12.889Z,96057.95
2019-04-20T05:27:52.539Z,96052.02
2019-04-20T05:30:09.835Z,96057.91
2019-04-20T05:32:52.470Z,96055.10
2019-04-20T05:35:36.447Z,96067.54
2019-04-20T05:38:12.123Z,96057.27
2019-04-20T05:40:49.000Z,96063.95
2019-04-20T05:43:27.574Z,96069.00
2019-04-20T05:45:58.682Z,96064.21
2019-04-20T05:48:44.214Z,96070.05
2019-04-20T05:51:12.141Z,96071.18
2019-04-20T05:53:45.465Z,96070.36
2019-04-20T05:56:26.715Z,96061.88
2019-04-20T05:58:57.950Z,96063.88
2019-04-20T06:01:31.804Z,96074.68
2019-04-20T06:04:01.610Z,96077.56
2019-04-20T06:06:45.112Z,96065.67
2019-04-20T06:09:20.979Z,96071.60
2019-04-20T06:12:02.952Z,96066.81
2019-04-20T06:14:40.036Z,96067.14
2019-04-20T06:17:49.298Z,96066.48
2019-04-20T06:20:26.887Z,96071.55
2019-04-20T06:23:09.412Z,96064.20
2019-04-20T06:28:48.890Z,96065.44
2019-04-20T06:31:30.110Z,96064.12
2019-04-20T06:40:30.694Z,96069.01
2019-04-20T06:45:44.442Z,96066.13
2019-04-20T06:48:22.125Z,96063.16
2019-04-20T06:50:44.754Z,96065.81
2019-04-20T06:53:46.579Z,96060.87
2019-04-20T06:56:27.676Z,96057.34
2019-04-20T06:59:00.080Z,96070.97
2019-04-20T07:01:37.238Z,96059.81
2019-04-20T07:04:27.815Z,96065.08
2019-04-20T07:09:22.015Z,96054.81
2019-04-20T07:11:50.615Z,96068.86
2019-04-20T07:14:08.345Z,96060.78
2019-04-20T07:17:31.697Z,96061.50
2019-04-20T07:19:58.882Z,96067.83
2019-04-20T07:25:07.644Z,96070.57
2019-04-20T07:27:50.828Z,96069.90
2019-04-20T07:30:19.066Z,96064.86
2019-04-20T07:33:18.658Z,96059.09
2019-04-20T07:35:30.484Z,96062.54
2019-04-20T07:38:25.576Z,96060.37
2019-04-20T07:40:38.301Z,96064.80
2019-04-20T07:43:07.903Z,96059.14
2019-04-20T07:45:49.085Z,96056.62
2019-04-20T07:48:21.205Z,96052.75
2019-04-20T07:50:53.372Z,96046.80
2019-04-20T07:53:30.274Z,96047.89
2019-04-20T07:56:17.637Z,96047.28
2019-04-20T07:58:30.491Z,96044.87
2019-04-20T08:01:31.705Z,96048.08
2019-04-20T08:04:04.041Z,96048.67
2019-04-20T08:06:26.392Z,96038.89
2019-04-20T08:09:10.637Z,96039.41
2019-04-20T08:11:55.188Z,96037.02
2019-04-20T08:14:28.583Z,96034.25
2019-04-20T08:19:33.522Z,96033.71
2019-04-20T08:22:09.518Z,96028.13
2019-04-20T08:24:37.390Z,96035.51
2019-04-20T08:27:07.616Z,96026.50
2019-04-20T08:29:54.282Z,96030.30
2019-04-20T08:32:38.999Z,96026.67
2019-04-20T08:35:23.136Z,96019.14
2019-04-20T08:38:00.864Z,96022.92
2019-04-20T08:40:25.455Z,96024.78
2019-04-20T08:43:16.866Z,96019.59
2019-04-20T08:45:42.031Z,96016.23
2019-04-20T08:48:18.943Z,96017.61
2019-04-20T08:50:45.303Z,96017.20
2019-04-20T08:53:27.563Z,96015.66
2019-04-20T08:55:49.154Z,96017.16
2019-04-20T08:58:11.423Z,96012.55
2019-04-20T09:00:51.513Z,96009.17
2019-04-20T09:03:25.378Z,96002.74
2019-04-20T09:06:03.543Z,96005.51
2019-04-20T09:08:42.255Z,96006.63
2019-04-20T09:11:19.705Z,96003.47
2019-04-20T09:13:43.462Z,96009.72
2019-04-20T09:16:13.160Z,96001.30
2019-04-20T09:18:54.744Z,96002.52
2019-04-20T09:21:29.720Z,95999.16
2019-04-20T09:24:22.870Z,95994.13
2019-04-20T09:26:47.751Z,95996.12
2019-04-20T09:29:16.014Z,95988.66
2019-04-20T09:31:51.884Z,95982.19
2019-04-20T09:34:43.693Z,95982.73
2019-04-20T09:37:29.635Z,95981.56
2019-04-20T09:40:25.578Z,95980.87
2019-04-20T09:42:57.294Z,95979.27
2019-04-20T09:45:40.965Z,95976.33
2019-04-20T09:48:15.758Z,95976.86
2019-04-20T09:51:04.768Z,95971.25
2019-04-20T09:53:44.115Z,95971.00
2019-04-20T09:56:38.592Z,95967.78
2019-04-20T09:59:28.376Z,95969.31
2019-04-20T10:02:44.578Z,95965.64
2019-04-20T10:05:17.753Z,95956.64
2019-04-20T10:07:55.970Z,95953.75
2019-04-20T10:10:33.382Z,95948.84
2019-04-20T10:13:00.552Z,95947.19
2019-04-20T10:15:33.841Z,95945.95
2019-04-20T10:18:07.887Z,95950.11
2019-04-20T10:20:42.284Z,95943.12
2019-04-20T10:23:16.447Z,95944.17
2019-04-20T10:25:50.824Z,95938.00
2019-04-20T10:28:23.873Z,95932.51
2019-04-20T10:30:57.322Z,95932.63
2019-04-20T10:33:31.430Z,95926.84
2019-04-20T10:36:05.744Z,95933.59
2019-04-20T10:38:38.698Z,95939.16
2019-04-20T10:41:21.569Z,95933.39
2019-04-20T10:43:46.970Z,95931.73
2019-04-20T10:46:20.738Z,95927.76
2019-04-20T10:48:56.108Z,95931.22
2019-04-20T10:51:29.526Z,95934.69
2019-04-20T10:54:02.586Z,95932.00
2019-04-20T10:56:35.390Z,95928.06
2019-04-20T10:59:09.680Z,95924.53
2019-04-20T11:01:43.424Z,95922.61
2019-04-20T11:04:16.737Z,95919.96
2019-04-20T11:06:50.339Z,95914.09
2019-04-20T11:09:24.768Z,95918.23
2019-04-20T11:11:58.710Z,95916.33
2019-04-20T11:14:36.362Z,95913.94
2019-04-20T11:17:06.743Z,95914.93
2019-04-20T11:19:39.232Z,95914.53
2019-04-20T11:22:12.601Z,95910.31
2019-04-20T11:24:48.157Z,95908.80
2019-04-20T11:27:22.467Z,95907.70
2019-04-20T11:29:56.059Z,95909.84
2019-04-20T11:32:28.838Z,95899.16
2019-04-20T11:35:11.066Z,95897.66
2019-04-20T11:37:37.319Z,95894.36
2019-04-20T11:40:10.985Z,95888.48
2019-04-20T11:42:43.962Z,95899.66
2019-04-20T11:45:18.341Z,95885.40
2019-04-20T11:47:51.631Z,95889.68
2019-04-20T11:50:25.271Z,95879.70
2019-04-20T11:52:59.318Z,95883.75
2019-04-20T11:55:32.245Z,95879.20
2019-04-20T11:58:05.875Z,95869.34
2019-04-20T12:00:55.287Z,95871.27
2019-04-20T12:03:29.272Z,95869.28
2019-04-20T12:05:59.748Z,95873.32
2019-04-20T12:08:32.711Z,95871.02
2019-04-20T12:11:21.376Z,95870.13
2019-04-20T12:13:40.710Z,95856.55
2019-04-20T12:16:13.944Z,95865.72
2019-04-20T12:18:48.245Z,95856.95
2019-04-20T12:21:21.304Z,95850.77
2019-04-20T12:23:54.463Z,95846.02
2019-04-20T12:26:28.964Z,95850.19
2019-04-20T12:29:01.984Z,95852.00
2019-04-20T12:31:35.649Z,95848.80
2019-04-20T12:34:08.738Z,95853.15
2019-04-20T12:36:42.810Z,95845.89
2019-04-20T12:39:17.019Z,95848.47
2019-04-20T12:41:56.101Z,95849.33
2019-04-20T12:44:25.798Z,95845.41
2019-04-20T12:46:59.638Z,95835.34
2019-04-20T12:49:33.650Z,95839.61
2019-04-20T12:52:08.298Z,95843.66
2019-04-20T12:54:44.248Z,95835.19
2019-04-20T12:57:16.624Z,95845.14
2019-04-20T12:59:51.247Z,95829.66
2019-04-20T13:02:25.137Z,95834.80
2019-04-20T13:04:59.441Z,95829.24
2019-04-20T13:07:41.612Z,95831.41
2019-04-20T13:10:09.837Z,95826.75
2019-04-20T13:13:10.303Z,95818.84
2019-04-20T13:16:02.608Z,95816.45
2019-04-20T13:18:41.227Z,95807.42
2019-04-20T13:21:14.428Z,95815.27
2019-04-20T13:23:47.121Z,95814.41
2019-04-20T13:26:19.483Z,95808.45
2019-04-20T13:28:52.908Z,95799.89
2019-04-20T13:31:26.127Z,95795.28
2019-04-20T13:33:59.270Z,95797.66
2019-04-20T13:36:32.558Z,95786.36
2019-04-20T13:39:08.231Z,95788.22
2019-04-20T13:41:42.116Z,95782.23
2019-04-20T13:44:15.762Z,95781.84
2019-04-20T13:46:49.208Z,95786.06
2019-04-20T13:49:22.939Z,95780.10
2019-04-20T13:51:57.052Z,95783.38
2019-04-20T13:54:30.014Z,95784.62
2019-04-20T13:57:03.723Z,95783.63
2019-04-20T13:59:41.931Z,95766.86
2019-04-20T14:02:34.777Z,95776.25
2019-04-20T14:05:08.899Z,95778.69
2019-04-20T14:07:42.323Z,95776.22
2019-04-20T14:10:15.708Z,95768.30
2019-04-20T14:12:57.232Z,95768.63
2019-04-20T14:15:23.258Z,95756.76
2019-04-20T14:17:57.273Z,95753.52
2019-04-20T14:20:30.254Z,95742.42
2019-04-20T14:23:03.244Z,95742.63
2019-04-20T14:25:36.749Z,95744.89
2019-04-20T14:28:11.223Z,95750.72
2019-04-20T14:30:44.219Z,95753.02
2019-04-20T14:33:17.351Z,95742.66
2019-04-20T14:35:50.650Z,95733.38
2019-04-20T14:38:24.303Z,95725.87
2019-04-20T14:40:58.143Z,95732.78
2019-04-20T14:43:33.505Z,95728.09
2019-04-20T14:46:06.325Z,95718.48
2019-04-20T14:48:40.591Z,95719.69
2019-04-20T14:51:14.598Z,95720.09
2019-04-20T14:53:47.518Z,95720.30
2019-04-20T14:56:20.497Z,95715.08
2019-04-20T14:59:01.865Z,95717.37
2019-04-20T15:01:44.836Z,95701.84
2019-04-20T15:04:21.225Z,95714.20
2019-04-20T15:06:52.667Z,95709.27
2019-04-20T15:09:26.689Z,95716.86
2019-04-20T15:12:00.947Z,95698.85
2019-04-20T15:14:34.608Z,95704.00
2019-04-20T15:17:08.949Z,95706.83
2019-04-20T15:20:03.763Z,95710.43
2019-04-20T15:22:35.910Z,95698.23
2019-04-20T15:25:09.661Z,95699.92
2019-04-20T15:27:46.075Z,95702.83
2019-04-20T15:30:18.380Z,95699.69
2019-04-20T15:32:52.444Z,95691.38
2019-04-20T15:35:26.306Z,95686.66
2019-04-20T15:38:00.481Z,95685.34
2019-04-20T15:40:33.506Z,95687.65
2019-04-20T15:43:12.445Z,95688.33
2019-04-20T15:45:41.291Z,95683.66
2019-04-20T15:48:14.364Z,95682.06
2019-04-20T15:50:47.840Z,95684.09
2019-04-20T15:53:23.890Z,95680.72
2019-04-20T15:55:57.608Z,95682.46
2019-04-20T15:58:30.529Z,95673.33
2019-04-20T16:01:08.261Z,95678.75
2019-04-20T16:03:47.651Z,95671.55
2019-04-20T16:06:21.336Z,95671.98
2019-04-20T16:08:56.566Z,95672.23
2019-04-20T16:11:30.794Z,95669.73
2019-04-20T16:14:05.380Z,95664.37
2019-04-20T16:16:38.708Z,95667.27
2019-04-20T16:19:25.826Z,95664.78
2019-04-20T16:21:47.790Z,95662.05
2019-04-20T16:24:22.527Z,95658.73
2019-04-20T16:27:27.672Z,95658.67
2019-04-20T16:30:01.839Z,95660.22
2019-04-20T16:32:36.449Z,95650.77
2019-04-20T16:35:10.916Z,95655.16
2019-04-20T16:37:44.404Z,95661.22
2019-04-20T16:40:17.785Z,95650.09
2019-04-20T16:42:52.061Z,95648.99
2019-04-20T16:45:25.320Z,95654.55
2019-04-20T16:47:59.728Z,95656.37
2019-04-20T16:50:33.118Z,95659.19
2019-04-20T16:53:06.649Z,95645.49
2019-04-20T16:55:40.935Z,95645.57
2019-04-20T16:58:13.947Z,95647.36
2019-04-20T17:00:47.673Z,95644.79
2019-04-20T17:03:24.202Z,95645.53
2019-04-20T17:05:55.931Z,95652.23
2019-04-20T17:08:29.239Z,95647.95
2019-04-20T17:11:03.375Z,95645.65
2019-04-20T17:13:43.439Z,95652.58
2019-04-20T17:16:10.853Z,95645.81
2019-04-20T17:18:48.230Z,95654.39
2019-04-20T17:21:25.255Z,95654.73
2019-04-20T17:23:57.431Z,95651.77
2019-04-20T17:26:45.251Z,95653.42
2019-04-20T17:29:22.297Z,95657.67
2019-04-20T17:32:15.811Z,95653.09
2019-04-20T17:35:05.996Z,95657.14
2019-04-20T17:37:24.624Z,95652.98
2019-04-20T17:40:19.021Z,95654.59
2019-04-20T17:42:46.173Z,95655.75
2019-04-20T17:45:14.186Z,95655.44
2019-04-20T17:47:59.607Z,95670.44
2019-04-20T17:50:32.463Z,95660.09
2019-04-20T17:53:06.126Z,95665.84
2019-04-20T17:55:41.029Z,95663.81
2019-04-20T17:58:12.104Z,95656.37
2019-04-20T18:01:28.210Z,95652.69
2019-04-20T18:04:24.511Z,95657.06
2019-04-20T18:06:45.392Z,95659.84
2019-04-20T18:09:33.224Z,95661.55
2019-04-20T18:11:46.409Z,95658.80
2019-04-20T18:14:31.430Z,95652.66
2019-04-20T18:17:21.471Z,95651.28
2019-04-20T18:19:57.037Z,95651.48
2019-04-20T18:22:29.996Z,95648.97
2019-04-20T18:25:25.776Z,95648.87
2019-04-20T18:27:58.646Z,95642.12
2019-04-20T18:30:36.327Z,95645.43
2019-04-20T18:32:59.429Z,95644.45
2019-04-20T18:35:34.831Z,95645.55
2019-04-20T18:38:11.383Z,95650.31
2019-04-20T18:40:52.633Z,95648.98
2019-04-20T18:43:21.923Z,95645.39
2019-04-20T18:46:08.061Z,95650.64
2019-04-20T18:48:43.599Z,95642.81
2019-04-20T18:50:59.710Z,95652.65
2019-04-20T18:53:39.425Z,95658.75
2019-04-20T18:56:08.136Z,95657.00
2019-04-20T18:58:43.012Z,95659.02
2019-04-20T19:01:17.059Z,95665.08
2019-04-20T19:03:50.976Z,95662.64
2019-04-20T19:06:25.618Z,95667.06
2019-04-20T19:08:58.970Z,95667.83
2019-04-20T19:11:37.540Z,95669.73
2019-04-20T19:14:35.532Z,95670.92
2019-04-20T19:17:29.056Z,95675.05
2019-04-20T19:20:01.397Z,95678.97
2019-04-20T19:22:35.485Z,95683.12
2019-04-20T19:25:09.994Z,95675.47
2019-04-20T19:27:48.572Z,95673.95
2019-04-20T19:30:27.611Z,95676.20
2019-04-20T19:33:09.101Z,95676.14
2019-04-20T19:35:40.668Z,95681.79
2019-04-20T19:38:10.503Z,95683.22
2019-04-20T19:40:47.855Z,95688.84
2019-04-20T19:43:20.588Z,95686.40
2019-04-20T19:46:25.004Z,95682.97
2019-04-20T19:48:32.111Z,95689.67
2019-04-20T19:51:22.503Z,95692.16
2019-04-20T19:53:50.714Z,95686.50
2019-04-20T19:56:16.661Z,95688.55
2019-04-20T19:58:54.205Z,95684.45
2019-04-20T20:01:13.601Z,95684.78
2019-04-20T20:03:48.290Z,95690.93
2019-04-20T20:06:29.342Z,95684.15
2019-04-20T20:09:03.084Z,95685.81
2019-04-20T20:11:35.337Z,95686.52
2019-04-20T20:14:09.782Z,95680.32
2019-04-20T20:16:58.929Z,95682.85
2019-04-20T20:19:32.498Z,95682.52
2019-04-20T20:22:05.539Z,95684.70
2019-04-20T20:24:29.146Z,95675.94
2019-04-20T20:27:06.211Z,95679.27
2019-04-20T20:29:45.256Z,95683.23
2019-04-20T20:32:23.440Z,95675.88
2019-04-20T20:34:57.152Z,95678.31
2019-04-20T20:37:27.155Z,95679.17
2019-04-20T20:40:07.776Z,95662.05
2019-04-20T20:42:45.779Z,95671.10
2019-04-20T20:45:15.766Z,95669.98
2019-04-20T20:47:58.940Z,95659.25
2019-04-20T20:50:39.446Z,95667.84
2019-04-20T20:53:01.155Z,95655.49
2019-04-20T20:55:32.207Z,95666.27
2019-04-20T20:58:10.132Z,95660.28
2019-04-20T21:00:46.093Z,95668.38
2019-04-20T21:03:16.730Z,95659.06
2019-04-20T21:05:43.639Z,95660.86
2019-04-20T21:08:17.567Z,95662.02
2019-04-20T21:10:51.058Z,95661.70
2019-04-20T21:13:28.427Z,95655.81
2019-04-20T21:16:03.953Z,95654.61
2019-04-20T21:18:50.236Z,95646.22
2019-04-20T21:21:21.914Z,95654.67
2019-04-20T21:23:53.350Z,95648.17
2019-04-20T21:26:26.010Z,95640.87
2019-04-20T21:28:52.323Z,95640.86
2019-04-20T21:31:27.876Z,95643.15
2019-04-20T21:34:01.721Z,95641.48
2019-04-20T21:36:34.897Z,95644.51
2019-04-20T21:39:21.859Z,95633.04
2019-04-20T21:41:51.295Z,95626.75
2019-04-20T21:44:25.250Z,95637.59
2019-04-20T21:46:55.027Z,95645.28
2019-04-20T21:49:43.627Z,95635.38
2019-04-20T21:52:10.641Z,95634.02
2019-04-20T21:54:38.258Z,95630.56
2019-04-20T21:57:13.229Z,95631.32
2019-04-20T21:59:50.441Z,95635.51
2019-04-20T22:02:26.407Z,95631.69
2019-04-20T22:04:55.590Z,95626.45
2019-04-20T22:07:28.814Z,95627.98
2019-04-20T22:10:02.424Z,95623.11
2019-04-20T22:12:45.435Z,95626.49
2019-04-20T22:15:17.891Z,95632.41
2019-04-20T22:17:44.774Z,95623.93
2019-04-20T22:20:28.842Z,95622.16
2019-04-20T22:23:04.507Z,95617.41
2019-04-20T22:25:42.644Z,95617.45
2019-04-20T22:28:02.383Z,95626.89
2019-04-20T22:30:37.843Z,95622.27
2019-04-20T22:33:43.194Z,95626.50
2019-04-20T22:36:18.076Z,95628.67
2019-04-20T22:39:11.859Z,95625.28
2019-04-20T22:42:12.948Z,95623.71
2019-04-20T22:44:47.983Z,95620.21
2019-04-20T22:47:23.090Z,95621.76
2019-04-20T22:50:15.129Z,95615.84
2019-04-20T22:52:42.707Z,95618.06
2019-04-20T22:55:27.843Z,95614.14
2019-04-20T22:57:52.388Z,95617.25
2019-04-20T23:00:21.793Z,95619.51
2019-04-20T23:02:49.090Z,95615.95
2019-04-20T23:05:22.785Z,95613.66
2019-04-20T23:07:59.784Z,95609.23
2019-04-20T23:10:38.674Z,95614.34
2019-04-20T23:13:07.438Z,95608.75
2019-04-20T23:15:43.337Z,95616.76
2019-04-20T23:18:16.005Z,95620.89
2019-04-20T23:20:50.081Z,95618.20
2019-04-20T23:23:26.087Z,95617.23
2019-04-20T23:25:58.872Z,95610.28
2019-04-20T23:28:33.258Z,95607.08
2019-04-20T23:31:11.912Z,95606.22
2019-04-20T23:33:40.639Z,95610.66
2019-04-20T23:36:14.646Z,95611.43
2019-04-20T23:38:53.805Z,95605.09
2019-04-20T23:41:23.730Z,95613.48
2019-04-20T23:44:18.983Z,95612.03
2019-04-20T23:47:13.581Z,95598.87
2019-04-20T23:50:05.669Z,95596.75
2019-04-20T23:52:49.674Z,95592.79
2019-04-20T23:55:04.978Z,95592.94
2019-04-20T23:57:33.838Z,95580.08
